sensor_id;sensor_type;location;lat;lon;timestamp;pressure;altitude;pressure_sealevel;temperature;humidity
62779;BME280;48821;48.796;2.396;2022-11-04T06:39:55;100160.31;;;12.86;67.82
62779;BME280;48821;48.796;2.396;2022-11-04T06:41:07;100161.94;;;12.89;68.04
62779;BME280;48821;48.796;2.396;2022-11-04T06:42:18;100160.25;;;12.88;67.24
62779;BME280;48821;48.796;2.396;2022-11-04T06:43:28;100160.25;;;12.88;67.72
62779;BME280;48821;48.796;2.396;2022-11-04T06:44:38;100164.59;;;12.89;67.66
62779;BME280;48821;48.796;2.396;2022-11-04T06:45:52;100161.94;;;12.89;67.92
62779;BME280;48821;48.796;2.396;2022-11-04T06:47:03;100164.66;;;12.87;67.61
62779;BME280;48821;48.796;2.396;2022-11-04T06:48:13;100155.06;;;12.86;67.56
62779;BME280;48821;48.796;2.396;2022-11-04T06:49:24;100164.66;;;12.87;67.91
62779;BME280;48821;48.796;2.396;2022-11-04T06:50:34;100175.97;;;12.89;67.89
62779;BME280;48821;48.796;2.396;2022-11-04T06:51:45;100167.22;;;12.89;67.51
62779;BME280;48821;48.796;2.396;2022-11-04T06:52:56;100175.91;;;12.91;67.60
62779;BME280;48821;48.796;2.396;2022-11-04T06:54:06;100173.34;;;12.89;67.61
62779;BME280;48821;48.796;2.396;2022-11-04T06:55:17;100179.47;;;12.90;67.64
62779;BME280;48821;48.796;2.396;2022-11-04T06:56:27;100178.59;;;12.89;67.87
62779;BME280;48821;48.796;2.396;2022-11-04T06:57:37;100172.50;;;12.89;67.94
62779;BME280;48821;48.796;2.396;2022-11-04T06:58:49;100175.13;;;12.89;67.76
62779;BME280;48821;48.796;2.396;2022-11-04T06:59:59;100172.50;;;12.89;67.75
62779;BME280;48821;48.796;2.396;2022-11-04T07:01:10;100174.19;;;12.90;68.02
62779;BME280;48821;48.796;2.396;2022-11-04T07:02:20;100172.41;;;12.90;67.85
62779;BME280;48821;48.796;2.396;2022-11-04T07:03:30;100179.47;;;12.90;67.74
62779;BME280;48821;48.796;2.396;2022-11-04T07:04:41;100180.22;;;12.92;67.66
62779;BME280;48821;48.796;2.396;2022-11-04T07:05:51;100173.28;;;12.91;67.69
62779;BME280;48821;48.796;2.396;2022-11-04T07:07:01;100180.19;;;12.93;68.11
62779;BME280;48821;48.796;2.396;2022-11-04T07:08:12;100175.81;;;12.92;67.80
62779;BME280;48821;48.796;2.396;2022-11-04T07:09:22;100180.19;;;12.93;67.75
62779;BME280;48821;48.796;2.396;2022-11-04T07:10:33;100174.03;;;12.93;67.87
62779;BME280;48821;48.796;2.396;2022-11-04T07:11:43;100178.47;;;12.92;67.90
62779;BME280;48821;48.796;2.396;2022-11-04T07:12:54;100188.00;;;12.95;67.65
62779;BME280;48821;48.796;2.396;2022-11-04T07:14:04;100182.72;;;12.95;67.79
62779;BME280;48821;48.796;2.396;2022-11-04T07:15:15;100188.84;;;12.96;67.70
62779;BME280;48821;48.796;2.396;2022-11-04T07:16:25;100180.19;;;12.93;67.79
62779;BME280;48821;48.796;2.396;2022-11-04T07:17:36;100181.00;;;12.94;67.46
62779;BME280;48821;48.796;2.396;2022-11-04T07:18:46;100181.94;;;12.93;67.61
62779;BME280;48821;48.796;2.396;2022-11-04T07:19:58;100185.44;;;12.93;67.76
62779;BME280;48821;48.796;2.396;2022-11-04T07:21:10;100195.91;;;12.95;67.53
62779;BME280;48821;48.796;2.396;2022-11-04T07:22:21;100188.84;;;12.96;67.65
62779;BME280;48821;48.796;2.396;2022-11-04T07:23:32;100195.00;;;12.96;67.48
62779;BME280;48821;48.796;2.396;2022-11-04T07:24:42;100196.81;;;12.94;67.51
62779;BME280;48821;48.796;2.396;2022-11-04T07:25:52;100192.34;;;12.96;67.53
62779;BME280;48821;48.796;2.396;2022-11-04T07:27:03;100193.28;;;12.95;67.29
62779;BME280;48821;48.796;2.396;2022-11-04T07:28:15;100202.81;;;12.98;67.48
62779;BME280;48821;48.796;2.396;2022-11-04T07:29:26;100197.44;;;12.99;67.42
62779;BME280;48821;48.796;2.396;2022-11-04T07:30:37;100204.53;;;12.99;67.16
62779;BME280;48821;48.796;2.396;2022-11-04T07:31:48;100207.16;;;12.99;67.31
62779;BME280;48821;48.796;2.396;2022-11-04T07:32:58;100207.22;;;12.97;67.43
62779;BME280;48821;48.796;2.396;2022-11-04T07:34:08;100204.59;;;12.97;66.93
62779;BME280;48821;48.796;2.396;2022-11-04T07:35:19;100210.72;;;12.98;67.35
62779;BME280;48821;48.796;2.396;2022-11-04T07:36:29;100212.50;;;12.97;66.79
62779;BME280;48821;48.796;2.396;2022-11-04T07:37:40;100217.78;;;12.97;66.94
62779;BME280;48821;48.796;2.396;2022-11-04T07:38:50;100220.50;;;12.96;66.76
62779;BME280;48821;48.796;2.396;2022-11-04T07:40:00;100215.22;;;12.96;66.62
62779;BME280;48821;48.796;2.396;2022-11-04T07:41:12;100226.66;;;12.96;66.84
62779;BME280;48821;48.796;2.396;2022-11-04T07:42:22;100224.78;;;12.98;67.23
62779;BME280;48821;48.796;2.396;2022-11-04T07:43:32;100232.69;;;12.98;66.56
62779;BME280;48821;48.796;2.396;2022-11-04T07:44:43;100231.75;;;12.99;66.79
62779;BME280;48821;48.796;2.396;2022-11-04T07:46:07;100237.00;;;12.99;66.63
62779;BME280;48821;48.796;2.396;2022-11-04T07:47:19;100238.88;;;12.97;66.58
62779;BME280;48821;48.796;2.396;2022-11-04T07:48:29;100248.53;;;12.98;66.46
62779;BME280;48821;48.796;2.396;2022-11-04T07:49:40;100244.94;;;12.99;66.88
62779;BME280;48821;48.796;2.396;2022-11-04T07:50:54;100249.28;;;13.00;66.88
62779;BME280;48821;48.796;2.396;2022-11-04T07:52:04;100250.97;;;13.01;66.77
62779;BME280;48821;48.796;2.396;2022-11-04T07:53:14;100254.41;;;13.03;67.08
62779;BME280;48821;48.796;2.396;2022-11-04T07:54:25;100249.03;;;13.05;66.51
62779;BME280;48821;48.796;2.396;2022-11-04T07:55:36;100255.81;;;13.11;66.74
62779;BME280;48821;48.796;2.396;2022-11-04T07:56:47;100259.28;;;13.11;67.01
62779;BME280;48821;48.796;2.396;2022-11-04T07:57:57;100259.06;;;13.16;66.54
62779;BME280;48821;48.796;2.396;2022-11-04T07:59:08;100256.34;;;13.18;65.93
62779;BME280;48821;48.796;2.396;2022-11-04T08:00:18;100264.16;;;13.19;66.32
62779;BME280;48821;48.796;2.396;2022-11-04T08:01:29;100265.72;;;13.23;66.41
62779;BME280;48821;48.796;2.396;2022-11-04T08:02:40;100264.78;;;13.24;66.41
62779;BME280;48821;48.796;2.396;2022-11-04T08:03:51;100261.97;;;13.27;66.09
62779;BME280;48821;48.796;2.396;2022-11-04T08:05:02;100267.19;;;13.29;66.58
62779;BME280;48821;48.796;2.396;2022-11-04T08:06:16;100266.25;;;13.30;66.32
62779;BME280;48821;48.796;2.396;2022-11-04T08:07:27;100266.94;;;13.34;66.09
62779;BME280;48821;48.796;2.396;2022-11-04T08:08:37;100273.78;;;13.38;65.41
62779;BME280;48821;48.796;2.396;2022-11-04T08:09:48;100270.19;;;13.39;64.70
62779;BME280;48821;48.796;2.396;2022-11-04T08:11:01;100278.97;;;13.39;65.22
62779;BME280;48821;48.796;2.396;2022-11-04T08:12:11;100278.81;;;13.43;65.35
62779;BME280;48821;48.796;2.396;2022-11-04T08:13:22;100282.13;;;13.46;65.47
62779;BME280;48821;48.796;2.396;2022-11-04T08:14:33;100276.69;;;13.49;64.84
62779;BME280;48821;48.796;2.396;2022-11-04T08:15:43;100284.47;;;13.53;64.63
62779;BME280;48821;48.796;2.396;2022-11-04T08:16:53;100282.59;;;13.55;65.30
62779;BME280;48821;48.796;2.396;2022-11-04T08:18:04;100289.44;;;13.59;65.49
62779;BME280;48821;48.796;2.396;2022-11-04T08:19:14;100283.03;;;13.63;65.74
62779;BME280;48821;48.796;2.396;2022-11-04T08:20:24;100287.06;;;13.70;65.64
62779;BME280;48821;48.796;2.396;2022-11-04T08:21:35;100294.66;;;13.77;65.03
62779;BME280;48821;48.796;2.396;2022-11-04T08:22:45;100288.38;;;13.79;63.67
62779;BME280;48821;48.796;2.396;2022-11-04T08:23:55;100290.06;;;13.80;64.55
62779;BME280;48821;48.796;2.396;2022-11-04T08:25:06;100293.50;;;13.82;64.78
62779;BME280;48821;48.796;2.396;2022-11-04T08:26:18;100293.41;;;13.84;64.53
62779;BME280;48821;48.796;2.396;2022-11-04T08:27:28;100292.28;;;13.88;64.45
62779;BME280;48821;48.796;2.396;2022-11-04T08:28:38;100292.13;;;13.91;64.50
62779;BME280;48821;48.796;2.396;2022-11-04T08:29:49;100296.41;;;13.94;64.29
62779;BME280;48821;48.796;2.396;2022-11-04T08:31:09;100293.66;;;13.95;64.67
62779;BME280;48821;48.796;2.396;2022-11-04T08:32:20;100298.78;;;13.99;63.52
62779;BME280;48821;48.796;2.396;2022-11-04T08:33:32;100303.91;;;14.02;63.71
62779;BME280;48821;48.796;2.396;2022-11-04T08:34:42;100300.41;;;14.01;63.63
62779;BME280;48821;48.796;2.396;2022-11-04T08:35:54;100307.41;;;14.02;63.85
62779;BME280;48821;48.796;2.396;2022-11-04T08:37:05;100307.31;;;14.04;63.92
62779;BME280;48821;48.796;2.396;2022-11-04T08:38:15;100301.13;;;14.05;64.34
62779;BME280;48821;48.796;2.396;2022-11-04T08:39:26;100315.09;;;14.07;63.28
62779;BME280;48821;48.796;2.396;2022-11-04T08:40:36;100312.34;;;14.09;62.67
62779;BME280;48821;48.796;2.396;2022-11-04T08:41:46;100313.38;;;14.06;63.57
62779;BME280;48821;48.796;2.396;2022-11-04T08:42:58;100316.88;;;14.06;63.46
62779;BME280;48821;48.796;2.396;2022-11-04T08:44:10;100325.47;;;14.10;63.30
62779;BME280;48821;48.796;2.396;2022-11-04T08:45:21;100315.69;;;14.12;63.64
62779;BME280;48821;48.796;2.396;2022-11-04T08:46:35;100319.78;;;14.18;62.76
62779;BME280;48821;48.796;2.396;2022-11-04T08:47:45;100327.63;;;14.20;63.49
62779;BME280;48821;48.796;2.396;2022-11-04T08:48:56;100333.69;;;14.22;63.34
62779;BME280;48821;48.796;2.396;2022-11-04T08:50:06;100334.34;;;14.25;63.52
62779;BME280;48821;48.796;2.396;2022-11-04T08:51:23;100342.97;;;14.29;63.27
62779;BME280;48821;48.796;2.396;2022-11-04T08:52:34;100337.69;;;14.29;62.94
62779;BME280;48821;48.796;2.396;2022-11-04T08:53:44;100340.34;;;14.29;62.61
62779;BME280;48821;48.796;2.396;2022-11-04T08:54:54;100347.25;;;14.32;63.18
62779;BME280;48821;48.796;2.396;2022-11-04T08:56:31;100346.22;;;14.34;63.13
62779;BME280;48821;48.796;2.396;2022-11-04T08:57:43;100345.28;;;14.35;62.61
62779;BME280;48821;48.796;2.396;2022-11-04T08:58:54;100347.91;;;14.35;62.88
62779;BME280;48821;48.796;2.396;2022-11-04T09:00:05;100348.69;;;14.37;62.95
62779;BME280;48821;48.796;2.396;2022-11-04T09:01:16;100354.75;;;14.39;62.84
62779;BME280;48821;48.796;2.396;2022-11-04T09:02:27;100347.75;;;14.38;61.60
62779;BME280;48821;48.796;2.396;2022-11-04T09:03:40;100355.59;;;14.40;62.27
62779;BME280;48821;48.796;2.396;2022-11-04T09:04:50;100357.47;;;14.38;62.40
62779;BME280;48821;48.796;2.396;2022-11-04T09:06:00;100357.41;;;14.39;62.56
62779;BME280;48821;48.796;2.396;2022-11-04T09:07:11;100362.69;;;14.39;61.75
62779;BME280;48821;48.796;2.396;2022-11-04T09:08:21;100358.31;;;14.38;62.35
62779;BME280;48821;48.796;2.396;2022-11-04T09:09:32;100375.06;;;14.39;62.22
62779;BME280;48821;48.796;2.396;2022-11-04T09:10:44;100368.13;;;14.36;62.18
62779;BME280;48821;48.796;2.396;2022-11-04T09:11:55;100369.91;;;14.36;62.49
62779;BME280;48821;48.796;2.396;2022-11-04T09:13:05;100366.56;;;14.32;61.56
62779;BME280;48821;48.796;2.396;2022-11-04T09:14:16;100367.53;;;14.31;61.37
62779;BME280;48821;48.796;2.396;2022-11-04T09:15:27;100374.69;;;14.29;61.61
62779;BME280;48821;48.796;2.396;2022-11-04T09:16:39;100368.66;;;14.27;61.92
62779;BME280;48821;48.796;2.396;2022-11-04T09:17:49;100378.53;;;14.23;61.46
62779;BME280;48821;48.796;2.396;2022-11-04T09:19:00;100385.69;;;14.21;61.09
62779;BME280;48821;48.796;2.396;2022-11-04T09:20:11;100381.41;;;14.18;61.43
62779;BME280;48821;48.796;2.396;2022-11-04T09:21:21;100380.66;;;14.16;59.74
62779;BME280;48821;48.796;2.396;2022-11-04T09:22:32;100380.66;;;14.16;61.16
62779;BME280;48821;48.796;2.396;2022-11-04T09:23:42;100385.31;;;14.11;60.72
62779;BME280;48821;48.796;2.396;2022-11-04T09:24:52;100382.84;;;14.08;60.97
62779;BME280;48821;48.796;2.396;2022-11-04T09:26:08;100383.78;;;14.07;60.55
62779;BME280;48821;48.796;2.396;2022-11-04T09:27:19;100384.72;;;14.06;60.78
62779;BME280;48821;48.796;2.396;2022-11-04T09:28:30;100382.16;;;14.04;60.46
62779;BME280;48821;48.796;2.396;2022-11-04T09:29:40;100386.59;;;14.04;60.94
62779;BME280;48821;48.796;2.396;2022-11-04T09:30:51;100384.81;;;14.04;61.20
62779;BME280;48821;48.796;2.396;2022-11-04T09:32:02;100391.72;;;14.07;61.77
62779;BME280;48821;48.796;2.396;2022-11-04T09:33:13;100397.69;;;14.11;61.35
62779;BME280;48821;48.796;2.396;2022-11-04T09:34:23;100393.88;;;14.16;61.39
62779;BME280;48821;48.796;2.396;2022-11-04T09:35:33;100401.44;;;14.23;61.55
62779;BME280;48821;48.796;2.396;2022-11-04T09:36:44;100402.00;;;14.29;61.82
62779;BME280;48821;48.796;2.396;2022-11-04T09:37:58;100400.72;;;14.37;61.45
62779;BME280;48821;48.796;2.396;2022-11-04T09:39:09;100397.06;;;14.39;61.11
62779;BME280;48821;48.796;2.396;2022-11-04T09:40:22;100402.84;;;14.46;61.36
62779;BME280;48821;48.796;2.396;2022-11-04T09:42:36;100401.66;;;14.52;60.23
62779;BME280;48821;48.796;2.396;2022-11-04T09:43:29;100412.41;;;14.49;60.24
62779;BME280;48821;48.796;2.396;2022-11-04T09:46:12;100410.59;;;14.33;59.39
62779;BME280;48821;48.796;2.396;2022-11-04T09:47:24;100414.34;;;14.29;60.18
62779;BME280;48821;48.796;2.396;2022-11-04T09:48:47;100419.78;;;14.26;59.95
62779;BME280;48821;48.796;2.396;2022-11-04T09:49:59;100424.16;;;14.27;59.68
62779;BME280;48821;48.796;2.396;2022-11-04T09:51:12;100426.88;;;14.25;59.99
62779;BME280;48821;48.796;2.396;2022-11-04T09:52:30;100421.69;;;14.24;59.39
62779;BME280;48821;48.796;2.396;2022-11-04T09:53:56;100423.47;;;14.23;60.55
62779;BME280;48821;48.796;2.396;2022-11-04T09:56:29;100433.00;;;14.26;60.00
62779;BME280;48821;48.796;2.396;2022-11-04T09:57:41;100428.66;;;14.25;59.57
62779;BME280;48821;48.796;2.396;2022-11-04T09:58:52;100434.03;;;14.23;59.75
62779;BME280;48821;48.796;2.396;2022-11-04T10:00:03;100441.28;;;14.20;59.51
62779;BME280;48821;48.796;2.396;2022-11-04T10:02:56;100440.13;;;14.07;58.85
62779;BME280;48821;48.796;2.396;2022-11-04T10:05:50;100455.78;;;13.94;60.13
62779;BME280;48821;48.796;2.396;2022-11-04T10:08:46;100457.34;;;13.81;59.79
62779;BME280;48821;48.796;2.396;2022-11-04T10:11:47;100471.00;;;13.71;61.36
62779;BME280;48821;48.796;2.396;2022-11-04T10:14:55;100470.78;;;13.58;62.51
62779;BME280;48821;48.796;2.396;2022-11-04T10:17:57;100488.47;;;13.56;62.68
62779;BME280;48821;48.796;2.396;2022-11-04T10:25:21;100498.69;;;13.45;62.71
62779;BME280;48821;48.796;2.396;2022-11-04T10:26:35;100502.25;;;13.44;61.92
62779;BME280;48821;48.796;2.396;2022-11-04T10:27:51;100502.47;;;13.39;61.97
62779;BME280;48821;48.796;2.396;2022-11-04T10:29:05;100514.03;;;13.36;62.37
62779;BME280;48821;48.796;2.396;2022-11-04T10:30:21;100517.63;;;13.35;62.44
62779;BME280;48821;48.796;2.396;2022-11-04T10:31:35;100519.53;;;13.32;61.77
62779;BME280;48821;48.796;2.396;2022-11-04T10:32:58;100522.19;;;13.32;62.02
62779;BME280;48821;48.796;2.396;2022-11-04T10:34:28;100524.19;;;13.26;62.58
62779;BME280;48821;48.796;2.396;2022-11-04T10:35:47;100523.41;;;13.24;62.43
62779;BME280;48821;48.796;2.396;2022-11-04T10:36:58;100532.28;;;13.23;62.37
62779;BME280;48821;48.796;2.396;2022-11-04T10:39:28;100531.47;;;13.21;62.38
62779;BME280;48821;48.796;2.396;2022-11-04T10:40:40;100532.47;;;13.19;62.31
62779;BME280;48821;48.796;2.396;2022-11-04T10:41:52;100535.19;;;13.17;62.38
62779;BME280;48821;48.796;2.396;2022-11-04T10:43:07;100546.69;;;13.16;62.26
62779;BME280;48821;48.796;2.396;2022-11-04T10:44:23;100544.09;;;13.14;61.80
62779;BME280;48821;48.796;2.396;2022-11-04T10:45:43;100552.03;;;13.14;62.06
62779;BME280;48821;48.796;2.396;2022-11-04T10:49:02;100553.03;;;13.12;62.20
62779;BME280;48821;48.796;2.396;2022-11-04T10:50:26;100553.78;;;13.14;61.91
62779;BME280;48821;48.796;2.396;2022-11-04T10:51:37;100560.03;;;13.13;62.24
62779;BME280;48821;48.796;2.396;2022-11-04T10:52:48;100559.88;;;13.16;62.48
62779;BME280;48821;48.796;2.396;2022-11-04T10:53:59;100562.53;;;13.16;61.95
62779;BME280;48821;48.796;2.396;2022-11-04T10:55:37;100564.13;;;13.19;62.01
62779;BME280;48821;48.796;2.396;2022-11-04T10:56:53;100572.00;;;13.20;61.77
62779;BME280;48821;48.796;2.396;2022-11-04T10:58:13;100558.84;;;13.19;61.15
62779;BME280;48821;48.796;2.396;2022-11-04T10:59:50;100560.44;;;13.23;61.46
62779;BME280;48821;48.796;2.396;2022-11-04T11:00:58;100569.06;;;13.26;61.51
62779;BME280;48821;48.796;2.396;2022-11-04T11:02:09;100565.41;;;13.29;61.73
62779;BME280;48821;48.796;2.396;2022-11-04T11:03:29;100564.19;;;13.36;61.48
62779;BME280;48821;48.796;2.396;2022-11-04T11:04:40;100582.22;;;13.46;60.99
62779;BME280;48821;48.796;2.396;2022-11-04T11:06:09;100573.09;;;13.53;60.81
62779;BME280;48821;48.796;2.396;2022-11-04T11:07:21;100574.56;;;13.60;59.89
62779;BME280;48821;48.796;2.396;2022-11-04T11:08:45;100580.22;;;13.70;59.29
62779;BME280;48821;48.796;2.396;2022-11-04T11:09:56;100585.34;;;13.73;59.66
62779;BME280;48821;48.796;2.396;2022-11-04T11:11:12;100572.25;;;13.72;59.07
62779;BME280;48821;48.796;2.396;2022-11-04T11:12:24;100581.94;;;13.71;59.11
62779;BME280;48821;48.796;2.396;2022-11-04T11:13:44;100588.94;;;13.72;59.85
62779;BME280;48821;48.796;2.396;2022-11-04T11:14:57;100584.66;;;13.70;59.04
62779;BME280;48821;48.796;2.396;2022-11-04T11:16:20;100588.47;;;13.64;58.29
62779;BME280;48821;48.796;2.396;2022-11-04T11:17:36;100587.69;;;13.62;59.76
62779;BME280;48821;48.796;2.396;2022-11-04T11:20:22;100590.53;;;13.57;58.76
62779;BME280;48821;48.796;2.396;2022-11-04T11:21:45;100600.25;;;13.57;59.08
62779;BME280;48821;48.796;2.396;2022-11-04T11:22:58;100601.34;;;13.51;58.59
62779;BME280;48821;48.796;2.396;2022-11-04T11:24:26;100603.06;;;13.52;58.39
62779;BME280;48821;48.796;2.396;2022-11-04T11:25:48;100600.53;;;13.50;58.91
62779;BME280;48821;48.796;2.396;2022-11-04T11:27:08;100612.00;;;13.49;58.83
62779;BME280;48821;48.796;2.396;2022-11-04T11:28:23;100601.53;;;13.48;58.88
62779;BME280;48821;48.796;2.396;2022-11-04T11:29:34;100613.91;;;13.46;59.23
62779;BME280;48821;48.796;2.396;2022-11-04T11:30:58;100609.50;;;13.46;58.28
62779;BME280;48821;48.796;2.396;2022-11-04T11:32:27;100614.63;;;13.49;58.98
62779;BME280;48821;48.796;2.396;2022-11-04T11:33:46;100608.44;;;13.50;58.51
62779;BME280;48821;48.796;2.396;2022-11-04T11:34:58;100610.91;;;13.54;58.85
62779;BME280;48821;48.796;2.396;2022-11-04T11:36:21;100611.66;;;13.57;58.33
62779;BME280;48821;48.796;2.396;2022-11-04T11:37:32;100610.59;;;13.61;58.16
62779;BME280;48821;48.796;2.396;2022-11-04T11:39:05;100606.63;;;13.70;59.15
62779;BME280;48821;48.796;2.396;2022-11-04T11:40:29;100609.78;;;13.79;58.75
62779;BME280;48821;48.796;2.396;2022-11-04T11:42:06;100616.47;;;13.86;58.42
62779;BME280;48821;48.796;2.396;2022-11-04T11:43:26;100614.31;;;13.94;58.64
62779;BME280;48821;48.796;2.396;2022-11-04T11:44:40;100618.41;;;14.00;59.01
62779;BME280;48821;48.796;2.396;2022-11-04T11:45:56;100611.22;;;14.04;58.04
62779;BME280;48821;48.796;2.396;2022-11-04T11:47:35;100620.84;;;14.05;57.58
62779;BME280;48821;48.796;2.396;2022-11-04T11:48:53;100622.56;;;14.06;58.06
62779;BME280;48821;48.796;2.396;2022-11-04T11:50:17;100621.53;;;14.09;58.40
62779;BME280;48821;48.796;2.396;2022-11-04T11:51:32;100625.19;;;14.06;57.02
62779;BME280;48821;48.796;2.396;2022-11-04T11:52:44;100627.84;;;14.06;57.64
62779;BME280;48821;48.796;2.396;2022-11-04T11:55:21;100635.47;;;14.12;57.84
62779;BME280;48821;48.796;2.396;2022-11-04T11:56:35;100644.00;;;14.17;57.13
62779;BME280;48821;48.796;2.396;2022-11-04T11:59:58;100645.13;;;14.31;56.05
62779;BME280;48821;48.796;2.396;2022-11-04T12:01:14;100640.31;;;14.39;56.50
62779;BME280;48821;48.796;2.396;2022-11-04T12:02:35;100649.00;;;14.42;56.73
62779;BME280;48821;48.796;2.396;2022-11-04T12:03:50;100648.84;;;14.45;57.23
62779;BME280;48821;48.796;2.396;2022-11-04T12:05:01;100647.91;;;14.46;56.74
62779;BME280;48821;48.796;2.396;2022-11-04T12:07:48;100660.13;;;14.48;56.80
62779;BME280;48821;48.796;2.396;2022-11-04T12:09:11;100668.97;;;14.47;55.88
62779;BME280;48821;48.796;2.396;2022-11-04T12:11:08;100670.78;;;14.47;56.44
62779;BME280;48821;48.796;2.396;2022-11-04T12:16:46;100692.63;;;14.33;57.48
62779;BME280;48821;48.796;2.396;2022-11-04T12:21:10;100699.91;;;14.27;57.61
62779;BME280;48821;48.796;2.396;2022-11-04T12:22:27;100697.22;;;14.29;57.65
62779;BME280;48821;48.796;2.396;2022-11-04T12:25:30;100708.78;;;14.26;58.12
62779;BME280;48821;48.796;2.396;2022-11-04T12:28:28;100712.59;;;14.21;58.62
62779;BME280;48821;48.796;2.396;2022-11-04T12:30:10;100719.75;;;14.18;58.85
62779;BME280;48821;48.796;2.396;2022-11-04T12:31:49;100725.16;;;14.15;58.61
62779;BME280;48821;48.796;2.396;2022-11-04T12:33:34;100725.38;;;14.11;59.06
62779;BME280;48821;48.796;2.396;2022-11-04T12:40:25;100749.56;;;13.83;60.65
62779;BME280;48821;48.796;2.396;2022-11-04T12:41:41;100747.13;;;13.79;60.36
62779;BME280;48821;48.796;2.396;2022-11-04T12:44:33;100745.78;;;13.70;60.56
62779;BME280;48821;48.796;2.396;2022-11-04T12:48:03;100750.97;;;13.71;61.47
62779;BME280;48821;48.796;2.396;2022-11-04T12:50:50;100757.81;;;13.76;61.48
62779;BME280;48821;48.796;2.396;2022-11-04T12:53:44;100764.53;;;13.83;60.23
62779;BME280;48821;48.796;2.396;2022-11-04T12:56:13;100774.13;;;13.86;58.82
62779;BME280;48821;48.796;2.396;2022-11-04T13:00:33;100776.91;;;13.82;58.93
62779;BME280;48821;48.796;2.396;2022-11-04T13:01:55;100769.81;;;13.83;59.19
62779;BME280;48821;48.796;2.396;2022-11-04T13:03:15;100775.84;;;13.87;58.82
62779;BME280;48821;48.796;2.396;2022-11-04T13:04:46;100777.56;;;13.88;58.77
62779;BME280;48821;48.796;2.396;2022-11-04T13:06:13;100779.56;;;13.82;56.71
62779;BME280;48821;48.796;2.396;2022-11-04T13:07:37;100780.41;;;13.83;57.46
62779;BME280;48821;48.796;2.396;2022-11-04T13:08:53;100778.69;;;13.82;58.16
62779;BME280;48821;48.796;2.396;2022-11-04T13:10:15;100782.91;;;13.86;58.16
62779;BME280;48821;48.796;2.396;2022-11-04T13:11:33;100786.09;;;13.93;57.75
62779;BME280;48821;48.796;2.396;2022-11-04T13:12:48;100792.13;;;13.97;57.42
62779;BME280;48821;48.796;2.396;2022-11-04T13:14:11;100789.19;;;14.03;58.20
62779;BME280;48821;48.796;2.396;2022-11-04T13:15:27;100794.97;;;14.11;58.43
62779;BME280;48821;48.796;2.396;2022-11-04T13:16:42;100793.63;;;14.22;57.30
62779;BME280;48821;48.796;2.396;2022-11-04T13:17:59;100796.72;;;14.30;57.11
62779;BME280;48821;48.796;2.396;2022-11-04T13:19:25;100795.50;;;14.37;57.96
62779;BME280;48821;48.796;2.396;2022-11-04T13:22:07;100808.91;;;14.52;58.28
62779;BME280;48821;48.796;2.396;2022-11-04T13:23:31;100807.75;;;14.58;58.14
62779;BME280;48821;48.796;2.396;2022-11-04T13:24:50;100814.78;;;14.59;57.45
62779;BME280;48821;48.796;2.396;2022-11-04T13:26:06;100818.34;;;14.58;56.74
62779;BME280;48821;48.796;2.396;2022-11-04T13:27:26;100817.34;;;14.60;57.23
62779;BME280;48821;48.796;2.396;2022-11-04T13:28:39;100822.53;;;14.62;57.23
62779;BME280;48821;48.796;2.396;2022-11-04T13:30:03;100826.00;;;14.64;57.95
62779;BME280;48821;48.796;2.396;2022-11-04T13:32:00;100835.63;;;14.65;56.16
62779;BME280;48821;48.796;2.396;2022-11-04T13:33:24;100841.78;;;14.66;56.93
62779;BME280;48821;48.796;2.396;2022-11-04T13:34:46;100839.38;;;14.61;56.64
62779;BME280;48821;48.796;2.396;2022-11-04T13:37:24;100855.38;;;14.58;57.10
62779;BME280;48821;48.796;2.396;2022-11-04T13:38:43;100853.72;;;14.55;57.73
62779;BME280;48821;48.796;2.396;2022-11-04T13:44:36;100873.69;;;14.24;57.75
62779;BME280;48821;48.796;2.396;2022-11-04T13:45:51;100881.28;;;14.12;58.55
62779;BME280;48821;48.796;2.396;2022-11-04T13:47:10;100877.19;;;14.05;59.51
62779;BME280;48821;48.796;2.396;2022-11-04T13:48:25;100881.09;;;13.96;59.94
62779;BME280;48821;48.796;2.396;2022-11-04T13:49:36;100886.06;;;13.83;60.69
62779;BME280;48821;48.796;2.396;2022-11-04T13:51:13;100879.53;;;13.71;61.03
62779;BME280;48821;48.796;2.396;2022-11-04T13:52:27;100886.88;;;13.64;61.62
62779;BME280;48821;48.796;2.396;2022-11-04T13:53:49;100905.69;;;13.56;63.38
62779;BME280;48821;48.796;2.396;2022-11-04T13:55:04;100903.50;;;13.45;62.70
62779;BME280;48821;48.796;2.396;2022-11-04T13:56:27;100917.03;;;13.37;62.07
62779;BME280;48821;48.796;2.396;2022-11-04T13:57:53;100916.56;;;13.27;62.76
62779;BME280;48821;48.796;2.396;2022-11-04T13:59:26;100915.97;;;13.21;63.22
62779;BME280;48821;48.796;2.396;2022-11-04T14:00:38;100917.84;;;13.17;62.92
62779;BME280;48821;48.796;2.396;2022-11-04T14:04:39;100934.00;;;13.09;63.49
62779;BME280;48821;48.796;2.396;2022-11-04T14:07:14;100935.78;;;13.09;63.57
62779;BME280;48821;48.796;2.396;2022-11-04T14:08:27;100935.91;;;13.05;64.54
62779;BME280;48821;48.796;2.396;2022-11-04T14:14:53;100946.88;;;13.17;64.72
62779;BME280;48821;48.796;2.396;2022-11-04T14:18:47;100947.66;;;13.19;64.93
62779;BME280;48821;48.796;2.396;2022-11-04T14:20:08;100944.91;;;13.22;64.82
62779;BME280;48821;48.796;2.396;2022-11-04T14:21:23;100948.34;;;13.24;65.14
62779;BME280;48821;48.796;2.396;2022-11-04T14:23:55;100951.66;;;13.30;64.81
62779;BME280;48821;48.796;2.396;2022-11-04T14:26:42;100962.03;;;13.34;65.23
62779;BME280;48821;48.796;2.396;2022-11-04T14:27:56;100961.03;;;13.37;65.15
62779;BME280;48821;48.796;2.396;2022-11-04T14:29:13;100962.69;;;13.39;65.17
62779;BME280;48821;48.796;2.396;2022-11-04T14:30:59;100972.19;;;13.44;65.55
62779;BME280;48821;48.796;2.396;2022-11-04T14:32:11;100972.16;;;13.45;65.31